Main page
METAR-TAF:

METAR-TAF

Airports :

Oiapoque, Amapá, Brazil

latitude: 03-50N, longitude: 051-50W, elevation: 39 m

Current weather observation

The report was made 2 hours and 5 minutes ago, at 20:00 UTC
Wind 7 kt from the Northeast
Temperature 31°C
Humidity 63%
Pressure 1008 hPa
Visibility 10 km or more
Few clouds at a height of 4500 ft

METAR: SBOI 212000Z 04007KT 9999 FEW045 31/23 Q1008

Time: 19:05 (22:05 UTC)

Forecast

The report was made 6 hours and 37 minutes ago, at 15:28 UTC
Forecast valid from 21 at 18 UTC to 22 at 06 UTC
Wind 5 kt from the East/Northeast
Visibility 10 km or more
Scattered clouds at a height of 2500 ft
Few clouds at a height of 3000 ft, Towering cumulus.

TAF: SBOI 211528Z 2118/2206 07005KT 9999 SCT025 FEW030TCU TX32/2118Z TN30/2120Z RMK PHI

Weather observations and forecasts of more than 4000 airports (METAR and TAF reports).

The available stations are represented by yellow and red dots on the map.

Hover mouse over dot to see the name of the station.

Then click to see weather observations and forecasts.

To change the map : click on the green buttons with a black cross to zoom in, on the green button with a dash to zoom out, or on the green arrows for adjacent maps.


METAR-TAF: